Time;durP1;ratioP1;P1;durP2;ratioP2;P2;SDS_P1;SDS_P2;PMS_P1;PMS_P2;Temp;Humidity;BMP_temperature;BMP_pressure;BME280_temperature;BME280_humidity;BME280_pressure;Samples;Min_cycle;Max_cycle;Signal;HPM_P1;HPM_P2
2022/11/26 00:00:14;;;;;;;;;;;8.40;98.20;;;;;;5102468;28;19964;-79
2022/11/26 00:02:42;;;;;;;;;;;8.40;98.20;;;;;;5104400;28;19927;-79
2022/11/26 00:05:12;;;;;;;;;;;8.30;98.20;;;;;;5104870;28;19939;-80
2022/11/26 00:07:38;;;;;;;;;;;8.30;98.20;;;;;;5103254;28;20504;-79
2022/11/26 00:10:08;;;;;;;;;;;8.30;98.20;;;;;;5103647;28;19937;-80
2022/11/26 00:12:35;;;;;;;;;;;8.30;98.20;;;;;;5102608;27;19927;-79
2022/11/26 00:15:10;;;;;;;;;;;8.30;98.30;;;;;;5101118;28;20288;-79
2022/11/26 00:17:36;;;;;;;;;;;8.20;98.20;;;;;;5104004;28;19935;-79
2022/11/26 00:20:05;;;;;;;;;;;8.30;98.30;;;;;;5098714;28;19940;-79
2022/11/26 00:22:34;;;;;;;;;;;8.20;98.30;;;;;;5103087;28;19928;-78
2022/11/26 00:25:01;;;;;;;;;;;8.20;98.30;;;;;;5108774;28;19928;-79
2022/11/26 00:27:28;;;;;;;;;;;8.20;98.30;;;;;;5097694;28;19928;-79
2022/11/26 00:29:54;;;;;;;;;;;8.20;98.30;;;;;;5105592;28;19932;-79
2022/11/26 00:32:22;;;;;;;;;;;8.20;98.30;;;;;;5081943;28;20424;-78
2022/11/26 00:34:48;;;;;;;;;;;8.20;98.30;;;;;;5082632;28;19928;-80
2022/11/26 00:37:18;;;;;;;;;;;8.20;98.40;;;;;;5077398;28;19936;-79
2022/11/26 00:39:45;;;;;;;;;;;8.20;98.40;;;;;;5081629;28;19931;-79
2022/11/26 00:42:12;;;;;;;;;;;8.20;98.40;;;;;;5080209;28;19935;-78
2022/11/26 00:44:38;;;;;;;;;;;8.20;98.50;;;;;;5083930;28;20740;-80
2022/11/26 00:47:05;;;;;;;;;;;8.20;98.50;;;;;;5081533;28;19955;-79
2022/11/26 00:49:31;;;;;;;;;;;8.20;98.50;;;;;;5077859;28;19928;-78
2022/11/26 00:51:58;;;;;;;;;;;8.20;98.50;;;;;;5079230;28;19932;-79
2022/11/26 00:54:26;;;;;;;;;;;8.20;98.50;;;;;;5078164;28;19932;-79
2022/11/26 00:56:52;;;;;;;;;;;8.10;98.50;;;;;;5080290;28;19929;-79
2022/11/26 00:59:20;;;;;;;;;;;8.10;98.50;;;;;;5077426;28;19928;-78
2022/11/26 01:01:47;;;;;;;;;;;8.10;98.50;;;;;;5074896;28;19928;-79
2022/11/26 01:04:14;;;;;;;;;;;8.20;98.60;;;;;;5081532;28;19933;-79
2022/11/26 01:06:41;;;;;;;;;;;8.20;98.60;;;;;;5076708;28;19929;-80
2022/11/26 01:09:13;;;;;;;;;;;8.10;98.60;;;;;;5083242;28;19940;-79
2022/11/26 01:11:41;;;;;;;;;;;8.10;98.60;;;;;;5080582;28;19928;-79
2022/11/26 01:14:13;;;;;;;;;;;8.10;98.60;;;;;;5087085;28;19927;-79
2022/11/26 01:16:41;;;;;;;;;;;8.10;98.60;;;;;;5082821;28;20326;-79
2022/11/26 01:19:10;;;;;;;;;;;8.10;98.60;;;;;;5082701;28;19932;-78
2022/11/26 01:21:36;;;;;;;;;;;8.10;98.60;;;;;;5080583;28;19935;-80
2022/11/26 01:24:03;;;;;;;;;;;8.10;98.60;;;;;;5081508;28;19928;-79
2022/11/26 01:26:33;;;;;;;;;;;8.10;98.60;;;;;;5078407;28;20429;-80
2022/11/26 01:29:01;;;;;;;;;;;8.10;98.60;;;;;;5091833;28;19976;-79
2022/11/26 01:31:28;;;;;;;;;;;8.10;98.60;;;;;;5107506;28;19928;-79
2022/11/26 01:33:55;;;;;;;;;;;8.10;98.60;;;;;;5103620;28;19932;-79
2022/11/26 01:36:25;;;;;;;;;;;8.10;98.60;;;;;;5106934;28;19938;-81
2022/11/26 01:38:52;;;;;;;;;;;8.10;98.70;;;;;;5102981;28;19942;-80
2022/11/26 01:41:21;;;;;;;;;;;8.10;98.70;;;;;;5102427;28;20037;-80
2022/11/26 01:43:49;;;;;;;;;;;8.10;98.70;;;;;;5101942;28;19939;-79
2022/11/26 01:46:18;;;;;;;;;;;8.10;98.70;;;;;;5099816;28;19927;-79
2022/11/26 01:48:46;;;;;;;;;;;8.10;98.70;;;;;;5100201;28;19932;-79
2022/11/26 01:51:15;;;;;;;;;;;8.10;98.70;;;;;;5103427;28;19942;-79
2022/11/26 01:53:45;;;;;;;;;;;8.10;98.70;;;;;;5109592;28;19928;-79
2022/11/26 01:56:15;;;;;;;;;;;8.10;98.70;;;;;;5105655;28;19927;-76
2022/11/26 01:58:44;;;;;;;;;;;8.10;98.70;;;;;;5103042;28;19967;-79
2022/11/26 02:01:11;;;;;;;;;;;8.10;98.70;;;;;;5104014;28;19955;-78
2022/11/26 02:03:41;;;;;;;;;;;8.10;98.70;;;;;;5094005;28;19932;-79
2022/11/26 02:06:10;;;;;;;;;;;8.10;98.70;;;;;;5105646;28;20294;-79
2022/11/26 02:08:37;;;;;;;;;;;8.10;98.70;;;;;;5099637;28;19936;-79
2022/11/26 02:11:13;;;;;;;;;;;8.10;98.70;;;;;;5100689;28;19927;-80
2022/11/26 02:13:40;;;;;;;;;;;8.10;98.70;;;;;;5094926;28;19934;-79
2022/11/26 02:16:10;;;;;;;;;;;8.10;98.70;;;;;;5109668;28;19928;-77
2022/11/26 02:18:41;;;;;;;;;;;8.10;98.70;;;;;;5103707;28;19973;-79
2022/11/26 02:21:12;;;;;;;;;;;8.10;98.70;;;;;;5108942;28;20418;-79
2022/11/26 02:23:54;;;;;;;;;;;8.10;98.70;;;;;;5106360;28;20323;-78
2022/11/26 02:26:32;;;;;;;;;;;8.10;98.70;;;;;;5094757;28;19932;-79
2022/11/26 02:29:03;;;;;;;;;;;8.10;98.70;;;;;;5109099;28;20837;-78
2022/11/26 02:31:33;;;;;;;;;;;8.10;98.70;;;;;;5110030;28;19928;-78
2022/11/26 02:34:05;;;;;;;;;;;8.10;98.70;;;;;;5095824;28;19935;-77
2022/11/26 02:36:33;;;;;;;;;;;8.10;98.70;;;;;;5102266;28;19961;-77
2022/11/26 02:39:10;;;;;;;;;;;8.10;98.70;;;;;;5105599;27;19934;-79
2022/11/26 02:41:41;;;;;;;;;;;8.10;98.70;;;;;;5106808;28;19935;-77
2022/11/26 02:44:07;;;;;;;;;;;8.10;98.70;;;;;;5107355;28;19928;-78
2022/11/26 02:46:36;;;;;;;;;;;8.10;98.70;;;;;;5109668;27;19935;-78
2022/11/26 02:49:03;;;;;;;;;;;8.10;98.70;;;;;;5106538;28;20591;-77
2022/11/26 02:51:30;;;;;;;;;;;8.10;98.70;;;;;;5111400;28;19958;-77
2022/11/26 02:53:57;;;;;;;;;;;8.10;98.70;;;;;;5107228;28;19939;-77
2022/11/26 02:56:26;;;;;;;;;;;8.10;98.70;;;;;;5101461;28;19928;-79
2022/11/26 02:58:53;;;;;;;;;;;8.10;98.70;;;;;;5103346;28;19940;-79
2022/11/26 03:01:27;;;;;;;;;;;8.10;98.70;;;;;;5103978;28;19936;-79
2022/11/26 03:03:57;;;;;;;;;;;8.10;98.70;;;;;;5095601;28;19932;-78
2022/11/26 03:06:25;;;;;;;;;;;8.10;98.70;;;;;;5109418;28;19931;-79
2022/11/26 03:08:53;;;;;;;;;;;8.10;98.70;;;;;;5099338;28;19958;-78
2022/11/26 03:11:20;;;;;;;;;;;8.10;98.70;;;;;;5101452;28;19931;-78
2022/11/26 03:13:47;;;;;;;;;;;8.10;98.70;;;;;;5104598;28;19938;-78
2022/11/26 03:16:13;;;;;;;;;;;8.10;98.70;;;;;;5100516;28;20017;-78
2022/11/26 03:18:40;;;;;;;;;;;8.10;98.70;;;;;;5105395;28;19934;-78
2022/11/26 03:21:08;;;;;;;;;;;8.10;98.70;;;;;;5096452;28;19928;-78
2022/11/26 03:23:35;;;;;;;;;;;8.10;98.70;;;;;;5106131;28;19948;-77
2022/11/26 03:26:01;;;;;;;;;;;8.10;98.70;;;;;;5095258;28;19942;-79
2022/11/26 03:28:28;;;;;;;;;;;8.10;98.70;;;;;;5097859;28;19928;-78
2022/11/26 03:30:54;;;;;;;;;;;8.10;98.70;;;;;;5096951;28;19958;-79
2022/11/26 03:33:21;;;;;;;;;;;8.10;98.70;;;;;;5102941;28;19928;-78
2022/11/26 03:35:48;;;;;;;;;;;8.10;98.70;;;;;;5104426;28;19928;-79
2022/11/26 03:38:16;;;;;;;;;;;8.10;98.70;;;;;;5107658;28;19928;-77
2022/11/26 03:40:43;;;;;;;;;;;8.10;98.70;;;;;;5098741;27;19932;-78
2022/11/26 03:43:09;;;;;;;;;;;8.10;98.70;;;;;;5104077;28;19928;-78
2022/11/26 03:45:36;;;;;;;;;;;8.10;98.70;;;;;;5096093;28;19938;-79
2022/11/26 03:48:02;;;;;;;;;;;8.10;98.70;;;;;;5100762;28;19928;-79
2022/11/26 03:50:29;;;;;;;;;;;8.00;98.70;;;;;;5095046;28;19981;-79
2022/11/26 03:52:55;;;;;;;;;;;8.10;98.70;;;;;;5099677;28;19927;-79
2022/11/26 03:55:23;;;;;;;;;;;8.00;98.70;;;;;;5097696;28;19928;-78
2022/11/26 03:57:50;;;;;;;;;;;8.10;98.70;;;;;;5098821;28;20346;-78
2022/11/26 04:00:17;;;;;;;;;;;8.10;98.70;;;;;;5104164;28;20401;-79
2022/11/26 04:02:44;;;;;;;;;;;8.00;98.70;;;;;;5096887;28;20003;-77
2022/11/26 04:05:10;;;;;;;;;;;8.00;98.70;;;;;;5097263;28;19931;-78
2022/11/26 04:07:37;;;;;;;;;;;8.00;98.70;;;;;;5102683;28;20280;-79
2022/11/26 04:10:03;;;;;;;;;;;8.10;98.70;;;;;;5104076;28;19983;-78
2022/11/26 04:12:31;;;;;;;;;;;8.00;98.60;;;;;;5105256;27;19950;-78
2022/11/26 04:14:58;;;;;;;;;;;8.00;98.60;;;;;;5107358;27;20289;-79
2022/11/26 04:17:24;;;;;;;;;;;8.10;98.60;;;;;;5107492;28;19928;-78
2022/11/26 04:19:51;;;;;;;;;;;8.10;98.60;;;;;;5099779;28;19939;-79
2022/11/26 04:22:18;;;;;;;;;;;8.00;98.60;;;;;;5102044;28;19982;-78
2022/11/26 04:24:44;;;;;;;;;;;8.00;98.60;;;;;;5099071;28;19935;-78
2022/11/26 04:27:11;;;;;;;;;;;8.00;98.70;;;;;;5105349;28;20308;-78
2022/11/26 04:29:39;;;;;;;;;;;8.00;98.60;;;;;;5102648;28;20414;-78
2022/11/26 04:32:06;;;;;;;;;;;8.00;98.70;;;;;;5081040;28;20090;-78
2022/11/26 04:34:32;;;;;;;;;;;8.00;98.70;;;;;;5077545;28;20322;-77
2022/11/26 04:36:59;;;;;;;;;;;8.00;98.70;;;;;;5076169;28;19939;-78
2022/11/26 04:39:25;;;;;;;;;;;8.00;98.70;;;;;;5079744;28;19928;-78
2022/11/26 04:41:52;;;;;;;;;;;8.00;98.70;;;;;;5075235;28;19928;-77
2022/11/26 04:44:18;;;;;;;;;;;8.00;98.70;;;;;;5077801;28;20531;-77
2022/11/26 04:46:46;;;;;;;;;;;8.00;98.70;;;;;;5083481;28;20655;-78
2022/11/26 04:49:14;;;;;;;;;;;8.00;98.70;;;;;;5075727;28;19931;-78
2022/11/26 04:51:40;;;;;;;;;;;8.00;98.70;;;;;;5079688;28;19935;-78
2022/11/26 04:54:07;;;;;;;;;;;7.90;98.70;;;;;;5082959;28;19943;-77
2022/11/26 04:56:33;;;;;;;;;;;8.00;98.70;;;;;;5087063;28;19928;-78
2022/11/26 04:59:00;;;;;;;;;;;8.00;98.70;;;;;;5082072;28;19935;-78
2022/11/26 05:01:27;;;;;;;;;;;7.90;98.70;;;;;;5073991;28;19942;-77
2022/11/26 05:03:54;;;;;;;;;;;8.00;98.70;;;;;;5081666;28;19939;-78
2022/11/26 05:06:21;;;;;;;;;;;7.90;98.70;;;;;;5077972;28;19934;-79
2022/11/26 05:08:48;;;;;;;;;;;7.90;98.70;;;;;;5076178;28;19928;-79
2022/11/26 05:11:14;;;;;;;;;;;7.90;98.70;;;;;;5081618;28;19939;-79
2022/11/26 05:13:41;;;;;;;;;;;7.90;98.70;;;;;;5083787;28;19928;-79
2022/11/26 05:16:07;;;;;;;;;;;7.80;98.70;;;;;;5085583;28;19935;-79
2022/11/26 05:18:34;;;;;;;;;;;7.90;98.70;;;;;;5080461;28;20455;-79
2022/11/26 05:21:04;;;;;;;;;;;7.80;98.60;;;;;;5074509;28;19928;-78
2022/11/26 05:23:30;;;;;;;;;;;7.80;98.60;;;;;;5075339;28;19935;-77
2022/11/26 05:25:57;;;;;;;;;;;7.70;98.60;;;;;;5078468;28;20334;-79
2022/11/26 05:28:23;;;;;;;;;;;7.70;98.60;;;;;;5082322;28;19928;-79
2022/11/26 05:30:50;;;;;;;;;;;7.70;98.60;;;;;;5079807;28;20014;-79
2022/11/26 05:33:16;;;;;;;;;;;7.70;98.70;;;;;;5080472;28;19936;-78
2022/11/26 05:35:43;;;;;;;;;;;7.70;98.70;;;;;;5073780;28;19932;-78
2022/11/26 05:38:11;;;;;;;;;;;7.70;98.70;;;;;;5078347;28;19928;-78
2022/11/26 05:40:37;;;;;;;;;;;7.70;98.70;;;;;;5073592;28;19928;-78
2022/11/26 05:43:04;;;;;;;;;;;7.70;98.70;;;;;;5075959;28;19939;-78
2022/11/26 05:45:31;;;;;;;;;;;7.60;98.70;;;;;;5081118;28;19933;-78
2022/11/26 05:47:57;;;;;;;;;;;7.60;99.00;;;;;;5081947;28;19935;-78
2022/11/26 05:50:24;;;;;;;;;;;7.60;98.70;;;;;;5078263;28;19935;-78
2022/11/26 05:52:50;;;;;;;;;;;7.60;98.70;;;;;;5080448;28;19928;-79
2022/11/26 05:55:19;;;;;;;;;;;7.60;98.70;;;;;;5086057;28;19939;-78
2022/11/26 05:57:45;;;;;;;;;;;7.60;98.70;;;;;;5079508;28;20414;-79
2022/11/26 06:00:12;;;;;;;;;;;7.60;98.70;;;;;;5080816;28;19928;-78
2022/11/26 06:02:39;;;;;;;;;;;7.50;98.70;;;;;;5081375;28;19935;-79
2022/11/26 06:05:06;;;;;;;;;;;7.50;99.00;;;;;;5076757;28;19933;-79
2022/11/26 06:07:33;;;;;;;;;;;7.50;98.70;;;;;;5081827;28;19928;-79
2022/11/26 06:09:59;;;;;;;;;;;7.50;98.70;;;;;;5075462;28;19929;-78
2022/11/26 06:12:27;;;;;;;;;;;7.50;98.70;;;;;;5072072;28;19935;-78
2022/11/26 06:14:54;;;;;;;;;;;7.50;98.80;;;;;;5074199;28;19928;-78
2022/11/26 06:17:20;;;;;;;;;;;7.50;98.80;;;;;;5080091;28;19978;-78
2022/11/26 06:19:47;;;;;;;;;;;7.50;98.80;;;;;;5078203;28;19932;-78
2022/11/26 06:22:13;;;;;;;;;;;7.50;98.80;;;;;;5077834;28;19935;-78
2022/11/26 06:24:40;;;;;;;;;;;7.40;98.80;;;;;;5074782;28;19928;-79
2022/11/26 06:27:07;;;;;;;;;;;7.40;98.80;;;;;;5077002;28;19928;-79
2022/11/26 06:29:35;;;;;;;;;;;7.40;98.90;;;;;;5079318;28;19985;-79
2022/11/26 06:32:01;;;;;;;;;;;7.40;98.80;;;;;;5078835;28;20335;-78
2022/11/26 06:34:28;;;;;;;;;;;7.40;98.80;;;;;;5071905;28;19928;-79
2022/11/26 06:36:54;;;;;;;;;;;7.40;98.80;;;;;;5079604;28;19932;-78
2022/11/26 06:39:21;;;;;;;;;;;7.40;98.80;;;;;;5074323;28;20398;-79
2022/11/26 06:41:48;;;;;;;;;;;7.40;98.80;;;;;;5075359;28;20111;-79
2022/11/26 06:44:14;;;;;;;;;;;7.40;98.80;;;;;;5077326;28;19928;-79
2022/11/26 06:46:42;;;;;;;;;;;7.40;98.80;;;;;;5071799;28;19932;-78
2022/11/26 06:49:09;;;;;;;;;;;7.40;98.80;;;;;;5077882;28;19936;-78
2022/11/26 06:51:36;;;;;;;;;;;7.40;98.90;;;;;;5082578;28;19932;-79
2022/11/26 06:54:03;;;;;;;;;;;7.40;98.90;;;;;;5076575;28;19928;-78
2022/11/26 06:56:29;;;;;;;;;;;7.40;98.90;;;;;;5081385;28;19928;-79
2022/11/26 06:58:56;;;;;;;;;;;7.40;98.90;;;;;;5075868;28;19933;-78
2022/11/26 07:01:23;;;;;;;;;;;7.40;98.90;;;;;;5081780;28;19936;-79
2022/11/26 07:03:51;;;;;;;;;;;7.30;98.90;;;;;;5078757;28;20018;-80
2022/11/26 07:06:19;;;;;;;;;;;7.40;98.90;;;;;;5075875;28;19932;-78
2022/11/26 07:08:45;;;;;;;;;;;7.40;98.90;;;;;;5073756;28;19939;-79
2022/11/26 07:11:12;;;;;;;;;;;7.40;99.00;;;;;;5080216;28;19938;-78
2022/11/26 07:13:39;;;;;;;;;;;7.40;99.00;;;;;;5077651;28;19932;-79
2022/11/26 07:16:06;;;;;;;;;;;7.40;99.00;;;;;;5072580;28;19955;-79
2022/11/26 07:18:32;;;;;;;;;;;7.30;99.00;;;;;;5079197;28;19928;-79
2022/11/26 07:21:05;;;;;;;;;;;7.30;99.00;;;;;;5074327;28;19950;-80
2022/11/26 07:23:31;;;;;;;;;;;7.40;99.10;;;;;;5077691;28;19932;-78
2022/11/26 07:25:58;;;;;;;;;;;7.30;99.00;;;;;;5075906;28;19939;-78
2022/11/26 07:28:24;;;;;;;;;;;7.30;99.10;;;;;;5076265;28;19928;-79
2022/11/26 07:30:51;;;;;;;;;;;7.30;99.10;;;;;;5059491;28;19940;-79
2022/11/26 07:33:17;;;;;;;;;;;7.40;99.10;;;;;;5049535;28;19940;-79
2022/11/26 07:35:44;;;;;;;;;;;7.30;99.10;;;;;;5052493;28;19951;-78
2022/11/26 07:38:12;;;;;;;;;;;7.30;99.10;;;;;;5056413;28;19940;-77
2022/11/26 07:40:38;;;;;;;;;;;7.30;99.10;;;;;;5055441;28;19928;-79
2022/11/26 07:43:05;;;;;;;;;;;7.30;99.10;;;;;;5056406;28;20368;-78
2022/11/26 07:45:32;;;;;;;;;;;7.30;99.10;;;;;;5061937;28;19934;-78
2022/11/26 07:47:58;;;;;;;;;;;7.30;99.10;;;;;;5078790;28;19973;-78
2022/11/26 07:50:25;;;;;;;;;;;7.30;99.10;;;;;;5074077;28;19935;-78
2022/11/26 07:52:51;;;;;;;;;;;7.30;99.40;;;;;;5077554;28;19928;-79
2022/11/26 07:55:19;;;;;;;;;;;7.30;99.10;;;;;;5076812;28;19954;-80
2022/11/26 07:57:46;;;;;;;;;;;7.30;99.10;;;;;;5079241;28;19955;-79
2022/11/26 08:00:13;;;;;;;;;;;7.30;99.10;;;;;;5071756;28;20629;-78
2022/11/26 08:02:40;;;;;;;;;;;7.20;99.10;;;;;;5074920;28;19928;-78
2022/11/26 08:05:06;;;;;;;;;;;7.30;99.20;;;;;;5075429;28;20010;-78
2022/11/26 08:07:34;;;;;;;;;;;7.20;99.10;;;;;;5073914;28;19935;-79
2022/11/26 08:10:00;;;;;;;;;;;7.30;99.20;;;;;;5072986;28;19944;-78
2022/11/26 08:12:28;;;;;;;;;;;7.20;99.20;;;;;;5080960;28;19936;-80
2022/11/26 08:14:55;;;;;;;;;;;7.20;99.20;;;;;;5074026;28;19939;-78
2022/11/26 08:17:21;;;;;;;;;;;7.20;99.20;;;;;;5078642;28;19928;-78
2022/11/26 08:19:48;;;;;;;;;;;7.20;99.20;;;;;;5081188;28;19931;-79
2022/11/26 08:22:14;;;;;;;;;;;7.20;99.20;;;;;;5081328;28;19929;-79
2022/11/26 08:24:41;;;;;;;;;;;7.20;99.20;;;;;;5076954;28;19931;-78
2022/11/26 08:27:07;;;;;;;;;;;7.20;99.30;;;;;;5069636;28;20061;-79
2022/11/26 08:29:37;;;;;;;;;;;7.20;99.30;;;;;;5088262;27;19935;-79
2022/11/26 08:32:04;;;;;;;;;;;7.20;99.30;;;;;;5082633;28;19928;-78
2022/11/26 08:34:31;;;;;;;;;;;7.20;99.30;;;;;;5083161;28;20338;-79
2022/11/26 08:36:58;;;;;;;;;;;7.20;99.30;;;;;;5079796;28;20319;-79
2022/11/26 08:39:25;;;;;;;;;;;7.20;99.30;;;;;;5077086;28;20438;-79
2022/11/26 08:41:52;;;;;;;;;;;7.20;99.30;;;;;;5082937;28;19928;-78
2022/11/26 08:44:19;;;;;;;;;;;7.20;99.40;;;;;;5089597;28;19932;-78
2022/11/26 08:46:47;;;;;;;;;;;7.20;99.40;;;;;;5079228;28;19943;-78
2022/11/26 08:49:15;;;;;;;;;;;7.20;99.40;;;;;;5077337;28;19928;-79
2022/11/26 08:51:42;;;;;;;;;;;7.20;99.40;;;;;;5076582;28;20756;-78
2022/11/26 08:54:09;;;;;;;;;;;7.20;99.40;;;;;;5081102;28;19932;-78
2022/11/26 08:56:35;;;;;;;;;;;7.20;99.40;;;;;;5082009;28;20391;-79
2022/11/26 08:59:02;;;;;;;;;;;7.20;99.40;;;;;;5075768;28;19935;-79
2022/11/26 09:01:31;;;;;;;;;;;7.20;99.70;;;;;;5084601;28;19935;-78
2022/11/26 09:03:59;;;;;;;;;;;7.20;99.40;;;;;;5098070;28;19928;-79
2022/11/26 09:06:27;;;;;;;;;;;7.20;99.40;;;;;;5098585;28;20591;-78
2022/11/26 09:09:12;;;;;;;;;;;7.20;99.40;;;;;;5088455;28;19928;-77
2022/11/26 09:11:40;;;;;;;;;;;7.20;99.40;;;;;;5100166;28;19943;-79
2022/11/26 09:14:06;;;;;;;;;;;7.20;99.40;;;;;;5098501;28;20319;-79
2022/11/26 09:16:33;;;;;;;;;;;7.20;99.40;;;;;;5094033;28;19928;-77
2022/11/26 09:19:02;;;;;;;;;;;7.20;99.40;;;;;;5092250;28;19927;-78
2022/11/26 09:21:28;;;;;;;;;;;7.20;99.40;;;;;;5096556;28;19951;-79
2022/11/26 09:23:55;;;;;;;;;;;7.20;99.40;;;;;;5094947;28;19940;-79
2022/11/26 09:26:23;;;;;;;;;;;7.20;99.40;;;;;;5099524;28;19931;-79
2022/11/26 09:28:49;;;;;;;;;;;7.20;99.40;;;;;;5087292;28;20063;-78
2022/11/26 09:31:16;;;;;;;;;;;7.20;99.40;;;;;;5076585;28;19928;-78
2022/11/26 09:33:43;;;;;;;;;;;7.30;99.40;;;;;;5078184;28;19932;-77
2022/11/26 09:36:11;;;;;;;;;;;7.20;99.40;;;;;;5073601;28;19932;-77
2022/11/26 09:38:38;;;;;;;;;;;7.30;99.40;;;;;;5080121;28;19928;-79
2022/11/26 09:41:08;;;;;;;;;;;7.30;99.40;;;;;;5077240;28;19928;-78
2022/11/26 09:43:41;;;;;;;;;;;7.30;99.40;;;;;;5079927;28;19932;-78
2022/11/26 09:46:09;;;;;;;;;;;7.30;99.30;;;;;;5077027;28;19935;-79
2022/11/26 09:48:37;;;;;;;;;;;7.30;99.30;;;;;;5079023;28;19954;-79
2022/11/26 09:51:08;;;;;;;;;;;7.30;99.30;;;;;;5072156;28;19935;-78
2022/11/26 09:53:37;;;;;;;;;;;7.30;99.30;;;;;;5083471;28;19928;-79
2022/11/26 09:56:09;;;;;;;;;;;7.30;99.20;;;;;;5074875;28;19932;-78
2022/11/26 09:58:40;;;;;;;;;;;7.30;99.20;;;;;;5074173;28;19927;-79
2022/11/26 10:01:07;;;;;;;;;;;7.30;99.20;;;;;;5080627;28;19928;-78
2022/11/26 10:03:34;;;;;;;;;;;7.40;99.20;;;;;;5079301;28;20343;-79
2022/11/26 10:06:05;;;;;;;;;;;7.30;99.50;;;;;;5077668;28;19935;-79
2022/11/26 10:09:01;;;;;;;;;;;7.40;99.20;;;;;;5070611;28;19932;-78
2022/11/26 10:11:31;;;;;;;;;;;7.40;99.20;;;;;;5071914;28;19985;-78
2022/11/26 10:14:03;;;;;;;;;;;7.40;99.20;;;;;;5078095;28;19928;-78
2022/11/26 10:16:36;;;;;;;;;;;7.40;99.10;;;;;;5077285;28;19928;-78
2022/11/26 10:19:05;;;;;;;;;;;7.40;99.10;;;;;;5077433;28;19935;-78
2022/11/26 10:21:35;;;;;;;;;;;7.40;99.10;;;;;;5076508;28;20311;-79
2022/11/26 10:24:05;;;;;;;;;;;7.40;99.10;;;;;;5071527;28;19928;-79
2022/11/26 10:26:34;;;;;;;;;;;7.40;99.10;;;;;;5072406;28;19935;-77
2022/11/26 10:29:06;;;;;;;;;;;7.40;99.10;;;;;;5094684;28;19927;-78
2022/11/26 10:31:33;;;;;;;;;;;7.50;99.10;;;;;;5097870;28;19927;-78
2022/11/26 10:34:01;;;;;;;;;;;7.40;99.00;;;;;;5098357;28;19928;-78
2022/11/26 10:36:32;;;;;;;;;;;7.50;99.00;;;;;;5096578;28;20315;-78
2022/11/26 10:38:59;;;;;;;;;;;7.50;99.00;;;;;;5099331;28;19933;-79
2022/11/26 10:41:28;;;;;;;;;;;7.50;99.00;;;;;;5102641;27;19935;-78
2022/11/26 10:43:55;;;;;;;;;;;7.50;99.00;;;;;;5104220;27;19938;-78
2022/11/26 10:46:34;;;;;;;;;;;7.50;98.90;;;;;;5106773;27;20502;-79
2022/11/26 10:49:15;;;;;;;;;;;7.50;98.90;;;;;;5102769;28;19928;-78
2022/11/26 10:51:41;;;;;;;;;;;7.50;98.90;;;;;;5098697;28;20685;-79
2022/11/26 10:54:20;;;;;;;;;;;7.60;98.90;;;;;;5100794;27;19928;-79
2022/11/26 10:56:51;;;;;;;;;;;7.60;98.90;;;;;;5108130;27;19927;-79
2022/11/26 10:59:20;;;;;;;;;;;7.60;98.90;;;;;;5103193;27;19932;-78
2022/11/26 11:01:47;;;;;;;;;;;7.70;98.90;;;;;;5101061;27;20406;-78
2022/11/26 11:04:22;;;;;;;;;;;7.60;98.80;;;;;;5100776;27;20414;-79
2022/11/26 11:06:49;;;;;;;;;;;7.60;98.80;;;;;;5102149;27;20028;-78
2022/11/26 11:09:24;;;;;;;;;;;7.70;98.80;;;;;;5101250;28;19932;-79
2022/11/26 11:12:13;;;;;;;;;;;7.80;98.80;;;;;;5102152;27;20066;-78
2022/11/26 11:14:39;;;;;;;;;;;7.70;98.70;;;;;;5098853;28;19958;-77
2022/11/26 11:17:06;;;;;;;;;;;7.80;98.70;;;;;;5101419;27;20390;-80
2022/11/26 11:19:33;;;;;;;;;;;7.80;98.60;;;;;;5103234;27;19931;-79
2022/11/26 11:22:01;;;;;;;;;;;7.80;98.50;;;;;;5104348;27;19932;-78
2022/11/26 11:24:28;;;;;;;;;;;7.90;98.50;;;;;;5100984;28;19934;-77
2022/11/26 11:26:56;;;;;;;;;;;7.90;98.40;;;;;;5100419;28;19942;-78
2022/11/26 11:29:26;;;;;;;;;;;7.90;98.40;;;;;;5101051;27;19955;-78
2022/11/26 11:31:54;;;;;;;;;;;8.00;98.40;;;;;;5096962;28;19934;-78
2022/11/26 11:34:22;;;;;;;;;;;8.00;98.30;;;;;;5099972;27;19932;-77
2022/11/26 11:36:58;;;;;;;;;;;8.00;98.30;;;;;;5101376;28;19939;-79
2022/11/26 11:39:28;;;;;;;;;;;8.00;98.30;;;;;;5106075;28;19951;-79
2022/11/26 11:41:55;;;;;;;;;;;8.00;98.30;;;;;;5104251;27;20039;-78
2022/11/26 11:44:24;;;;;;;;;;;8.00;98.20;;;;;;5099941;28;20660;-79
2022/11/26 11:47:05;;;;;;;;;;;8.00;98.20;;;;;;5105076;27;19931;-79
2022/11/26 11:49:49;;;;;;;;;;;8.10;98.30;;;;;;5100877;28;19977;-77
2022/11/26 11:52:21;;;;;;;;;;;8.10;98.30;;;;;;5096958;28;20443;-78
2022/11/26 11:54:55;;;;;;;;;;;8.10;98.30;;;;;;5106712;27;19932;-78
2022/11/26 11:57:30;;;;;;;;;;;8.00;98.30;;;;;;5095369;28;19927;-78
2022/11/26 12:00:12;;;;;;;;;;;8.10;98.40;;;;;;5098467;28;19997;-79
2022/11/26 12:03:02;;;;;;;;;;;8.10;98.40;;;;;;5108739;27;19928;-80
2022/11/26 12:05:38;;;;;;;;;;;8.10;98.40;;;;;;5039094;27;19933;-78
2022/11/26 12:08:12;;;;;;;;;;;8.20;98.40;;;;;;5100569;28;19932;-78
2022/11/26 12:10:43;;;;;;;;;;;8.20;98.40;;;;;;5101285;28;20016;-80
2022/11/26 12:13:12;;;;;;;;;;;8.20;98.30;;;;;;5106358;27;19927;-79
2022/11/26 12:15:44;;;;;;;;;;;8.20;98.20;;;;;;5103980;27;19972;-78
2022/11/26 12:18:16;;;;;;;;;;;8.30;98.20;;;;;;5105114;27;19928;-79
2022/11/26 12:20:47;;;;;;;;;;;8.20;98.10;;;;;;5102450;27;19927;-79
2022/11/26 12:23:22;;;;;;;;;;;8.20;98.10;;;;;;5101428;28;20248;-79
2022/11/26 12:25:51;;;;;;;;;;;8.30;98.20;;;;;;5096666;28;20280;-79
2022/11/26 12:28:22;;;;;;;;;;;8.30;98.10;;;;;;5099307;28;20445;-79
2022/11/26 12:30:51;;;;;;;;;;;8.30;98.10;;;;;;5103016;28;20382;-77
2022/11/26 12:33:21;;;;;;;;;;;8.30;98.00;;;;;;5100549;27;20655;-80
2022/11/26 12:35:51;;;;;;;;;;;8.30;98.00;;;;;;5098313;27;20528;-77
2022/11/26 12:38:21;;;;;;;;;;;8.40;98.00;;;;;;5101062;28;20294;-77
2022/11/26 12:40:49;;;;;;;;;;;8.40;97.90;;;;;;5102626;28;19928;-79
2022/11/26 12:43:17;;;;;;;;;;;8.40;97.70;;;;;;5097508;28;19935;-80
2022/11/26 12:45:48;;;;;;;;;;;8.50;97.60;;;;;;5098152;27;19931;-79
2022/11/26 12:48:20;;;;;;;;;;;8.50;97.40;;;;;;5096670;27;19943;-80
2022/11/26 12:50:50;;;;;;;;;;;8.50;97.40;;;;;;5103800;28;19928;-78
2022/11/26 12:53:20;;;;;;;;;;;8.60;97.20;;;;;;5102061;28;19928;-79
2022/11/26 12:55:52;;;;;;;;;;;8.60;97.10;;;;;;5101090;27;20337;-76
2022/11/26 12:58:21;;;;;;;;;;;8.70;96.90;;;;;;5100816;27;19936;-79
2022/11/26 13:00:51;;;;;;;;;;;8.70;96.50;;;;;;5102883;27;20314;-80
2022/11/26 13:03:21;;;;;;;;;;;8.70;96.70;;;;;;5097621;28;20319;-80
2022/11/26 13:05:54;;;;;;;;;;;8.70;96.80;;;;;;5097328;28;19934;-80
2022/11/26 13:08:33;;;;;;;;;;;8.70;96.90;;;;;;5099044;28;19938;-78
2022/11/26 13:11:06;;;;;;;;;;;8.80;96.80;;;;;;5103084;28;19946;-79
2022/11/26 13:13:37;;;;;;;;;;;8.80;96.60;;;;;;5103713;28;19934;-79
2022/11/26 13:16:08;;;;;;;;;;;8.80;96.60;;;;;;5103236;28;20018;-79
2022/11/26 13:18:36;;;;;;;;;;;8.90;96.80;;;;;;5100462;28;19934;-79
2022/11/26 13:21:15;;;;;;;;;;;8.80;96.80;;;;;;5090937;28;20362;-79
2022/11/26 13:23:52;;;;;;;;;;;8.90;96.70;;;;;;5094934;28;19939;-79
2022/11/26 13:26:24;;;;;;;;;;;8.90;96.30;;;;;;5099054;27;19964;-79
2022/11/26 13:29:02;;;;;;;;;;;9.00;96.30;;;;;;5105789;27;19939;-79
2022/11/26 13:31:36;;;;;;;;;;;9.00;96.20;;;;;;5107038;28;19935;-79
2022/11/26 13:34:24;;;;;;;;;;;9.00;96.20;;;;;;5107673;27;19927;-79
2022/11/26 13:37:04;;;;;;;;;;;9.10;96.20;;;;;;5100956;27;21443;-79
2022/11/26 13:39:48;;;;;;;;;;;9.10;96.10;;;;;;5101683;28;20437;-79
2022/11/26 13:42:23;;;;;;;;;;;9.20;96.20;;;;;;5100847;28;19942;-80
2022/11/26 13:44:55;;;;;;;;;;;9.20;96.10;;;;;;5099489;28;19931;-79
2022/11/26 13:47:26;;;;;;;;;;;9.30;96.10;;;;;;5098427;28;19928;-80
2022/11/26 13:49:56;;;;;;;;;;;9.30;96.00;;;;;;5096039;28;19928;-80
2022/11/26 13:52:26;;;;;;;;;;;9.40;95.80;;;;;;5097729;28;19932;-80
2022/11/26 13:54:55;;;;;;;;;;;9.40;95.50;;;;;;5099188;28;20287;-80
2022/11/26 13:57:24;;;;;;;;;;;9.50;95.50;;;;;;5102588;28;19928;-80
2022/11/26 13:59:52;;;;;;;;;;;9.50;95.50;;;;;;5098478;28;19928;-79
2022/11/26 14:02:36;;;;;;;;;;;9.60;95.50;;;;;;5096396;28;19935;-79
2022/11/26 14:05:04;;;;;;;;;;;9.60;95.50;;;;;;5098491;28;20019;-80
2022/11/26 14:07:31;;;;;;;;;;;9.60;95.30;;;;;;5100851;28;20406;-78
2022/11/26 14:09:58;;;;;;;;;;;9.60;95.30;;;;;;5100418;28;20042;-79
2022/11/26 14:12:52;;;;;;;;;;;9.60;95.30;;;;;;5099111;28;19927;-80
2022/11/26 14:15:37;;;;;;;;;;;9.60;95.30;;;;;;5101204;28;20687;-79
2022/11/26 14:18:04;;;;;;;;;;;9.60;95.40;;;;;;5103508;27;20345;-80
2022/11/26 14:20:31;;;;;;;;;;;9.50;95.50;;;;;;5105471;27;19937;-79
2022/11/26 14:23:17;;;;;;;;;;;9.50;95.50;;;;;;5094285;27;19950;-79
2022/11/26 14:25:44;;;;;;;;;;;9.50;95.60;;;;;;5101507;28;19928;-80
2022/11/26 14:28:12;;;;;;;;;;;9.40;95.70;;;;;;5094825;28;19932;-79
2022/11/26 14:30:39;;;;;;;;;;;9.40;95.80;;;;;;5075657;28;19928;-80
2022/11/26 14:33:14;;;;;;;;;;;9.40;95.80;;;;;;5064943;28;19994;-79
2022/11/26 14:35:41;;;;;;;;;;;9.30;95.80;;;;;;5062807;28;20025;-79
2022/11/26 14:38:21;;;;;;;;;;;9.30;96.00;;;;;;5060928;28;20009;-79
2022/11/26 14:40:56;;;;;;;;;;;9.30;96.10;;;;;;5072328;28;19936;-79